CheckWX is a tool to help pilots better visualize weather data.  It is not intended as a substitute for an official pre-flight weather briefing.

00:38:26 UTC

CYNC METAR
Wemindji Airport
Wemindji, Canada
Current

5 hours ago

CYNC 262000Z 23006KT 15SM FEW096 SCT250 BKN300 M09/M16 A3015 RMK AC1CS2CI2 LAST STFD OBS/NEXT 271300UTC SLP214
Observed
Mar-26 @ 20:00 UTC
Wind
  • 230° at 6 KTS
Visibility
15 SM
Flight Rules
VFR
Cloud Levels
  • Few at 9,600' AGL
  • Scattered at 25,000' AGL
  • Broken at 30,000' AGL
Temperature
-9°C / 16°F
Dewpoint
-16°C / 3°F
Humidity
57%
Altimeter
30.15" Hg
Pressure
1021.4 hPa
Previous

6 hours ago

CYNC 261900Z 22011KT 15SM FEW250 SCT300 M10/M17 A3016 RMK CS2CI2 SLP218
Observed
Mar-26 @ 19:00 UTC
Wind
  • 220° at 11 KTS
Visibility
15 SM
Flight Rules
VFR
Cloud Levels
  • Few at 25,000' AGL
  • Scattered at 30,000' AGL
Temperature
-10°C / 14°F
Dewpoint
-17°C / 1°F
Humidity
57%
Altimeter
30.16" Hg
Pressure
1021.8 hPa
Previous

7 hours ago

CYNC 261800Z 24008KT 210V270 15SM FEW300 M11/M18 A3017 RMK CI1 SLP219
Observed
Mar-26 @ 18:00 UTC
Wind
  • 240° at 8 KTS
Visibility
15 SM
Flight Rules
VFR
Cloud Levels
  • Few at 30,000' AGL
Temperature
-11°C / 12°F
Dewpoint
-18°C / -0°F
Humidity
57%
Altimeter
30.17" Hg
Pressure
1021.9 hPa